createdAt,value
2024-04-25T00:03:50.151Z,1.50
2024-04-25T00:08:54.836Z,1.53
2024-04-25T00:13:59.290Z,1.50
2024-04-25T00:19:06.422Z,1.40
2024-04-25T00:24:11.041Z,1.57
2024-04-25T00:29:15.583Z,1.33
2024-04-25T00:34:22.784Z,1.50
2024-04-25T00:39:28.110Z,1.40
2024-04-25T00:44:32.748Z,1.37
2024-04-25T00:49:40.417Z,1.70
2024-04-25T00:54:44.941Z,1.67
2024-04-25T00:59:50.733Z,1.47
2024-04-25T01:04:58.496Z,1.50
2024-04-25T01:10:03.063Z,1.37
2024-04-25T01:15:07.991Z,1.30
2024-04-25T01:20:15.329Z,1.23
2024-04-25T01:25:22.871Z,1.47
2024-04-25T01:30:28.358Z,1.40
2024-04-25T01:35:33.289Z,1.30
2024-04-25T01:40:40.520Z,1.50
2024-04-25T01:45:45.070Z,1.33
2024-04-25T01:50:50.207Z,1.60
2024-04-25T01:55:57.403Z,1.60
2024-04-25T02:01:01.965Z,1.53
2024-04-25T02:06:06.989Z,1.90
2024-04-25T02:11:14.255Z,1.80
2024-04-25T02:16:19.073Z,1.80
2024-04-25T02:21:39.755Z,1.37
2024-04-25T02:26:47.514Z,1.67
2024-04-25T02:31:52.038Z,1.77
2024-04-25T02:36:56.607Z,2.00
2024-04-25T02:42:03.792Z,2.07
2024-04-25T02:47:08.346Z,1.80
2024-04-25T02:52:12.913Z,1.63
2024-04-25T02:57:20.055Z,1.77
2024-04-25T03:02:24.651Z,1.80
2024-04-25T03:07:29.313Z,1.70
2024-04-25T03:12:36.824Z,2.03
2024-04-25T03:17:41.429Z,1.83
2024-04-25T03:22:45.976Z,1.60
2024-04-25T03:27:53.539Z,1.67
2024-04-25T03:32:58.564Z,1.83
2024-04-25T03:38:05.583Z,1.70
2024-04-25T03:43:13.090Z,1.57
2024-04-25T03:48:17.920Z,1.60
2024-04-25T03:53:22.617Z,1.47
2024-04-25T03:58:29.762Z,1.63
2024-04-25T04:03:34.269Z,1.50
2024-04-25T04:08:39.104Z,2.00
2024-04-25T04:13:46.971Z,1.70
2024-04-25T04:18:51.541Z,1.30
2024-04-25T04:23:56.066Z,1.63
2024-04-25T04:29:03.204Z,1.80
2024-04-25T04:34:07.829Z,2.00
2024-04-25T04:39:12.527Z,1.83
2024-04-25T04:44:19.668Z,1.80
2024-04-25T04:49:24.179Z,1.90
2024-04-25T04:54:28.654Z,1.97
2024-04-25T04:59:35.770Z,2.03
2024-04-25T05:04:40.442Z,1.97
2024-04-25T05:09:44.940Z,1.53
2024-04-25T05:14:52.275Z,2.33
2024-04-25T05:19:56.791Z,1.93
2024-04-25T05:25:01.340Z,1.97
2024-04-25T05:30:09.612Z,1.83
2024-04-25T05:35:14.157Z,2.20
2024-04-25T05:40:18.751Z,2.20
2024-04-25T05:45:25.898Z,1.90
2024-04-25T05:50:30.471Z,2.57
2024-04-25T05:55:36.432Z,2.20
2024-04-25T06:00:43.663Z,2.37
2024-04-25T06:05:48.201Z,2.93
2024-04-25T06:10:52.984Z,3.37
2024-04-25T06:16:00.283Z,2.00
2024-04-25T06:21:05.078Z,2.43
2024-04-25T06:26:09.717Z,2.77
2024-04-25T06:31:17.873Z,2.70
2024-04-25T06:36:22.504Z,2.77
2024-04-25T06:41:27.211Z,2.90
2024-04-25T06:46:34.672Z,2.70
2024-04-25T06:51:39.287Z,2.77
2024-04-25T06:56:43.894Z,2.57
2024-04-25T07:01:51.336Z,2.73
2024-04-25T07:06:55.881Z,3.00
2024-04-25T07:12:00.515Z,2.83
2024-04-25T07:17:08.017Z,3.00
2024-04-25T07:22:12.836Z,2.77
2024-04-25T07:27:17.450Z,2.70
2024-04-25T07:32:24.834Z,3.10
2024-04-25T07:37:30.913Z,2.80
2024-04-25T07:42:35.397Z,2.70
2024-04-25T07:47:42.702Z,2.43
2024-04-25T07:52:47.340Z,2.83
2024-04-25T07:57:51.866Z,2.50
2024-04-25T08:02:59.401Z,2.70
2024-04-25T08:08:04.005Z,2.90
2024-04-25T08:13:08.508Z,2.03
2024-04-25T08:18:15.833Z,2.80
2024-04-25T08:23:20.694Z,3.50
2024-04-25T08:28:25.278Z,2.70
2024-04-25T08:33:32.555Z,3.33
2024-04-25T08:38:37.351Z,2.50
2024-04-25T08:43:43.267Z,2.80
2024-04-25T08:48:50.471Z,3.80
2024-04-25T08:53:57.781Z,2.77
2024-04-25T08:59:02.471Z,2.40
2024-04-25T09:04:15.445Z,2.58
2024-04-25T09:09:20.491Z,2.22
2024-04-25T09:14:25.321Z,2.33
2024-04-25T09:19:32.742Z,2.20
2024-04-25T09:24:37.506Z,2.08
2024-04-25T09:29:42.153Z,2.17
2024-04-25T09:34:50.395Z,2.08
2024-04-25T09:39:58.478Z,2.17
2024-04-25T09:45:10.332Z,2.63
2024-04-25T09:50:22.207Z,2.22
2024-04-25T09:55:31.860Z,1.88
2024-04-25T10:00:37.430Z,2.05
2024-04-25T10:05:45.138Z,2.63
2024-04-25T10:10:49.830Z,2.28
2024-04-25T10:15:57.022Z,1.55
2024-04-25T10:21:05.142Z,2.78
2024-04-25T10:26:19.364Z,1.92
2024-04-25T10:31:23.981Z,2.22
2024-04-25T10:36:33.877Z,1.63
2024-04-25T10:41:39.672Z,1.55
2024-04-25T10:46:44.347Z,1.02
2024-04-25T10:51:51.530Z,1.60
2024-04-25T10:56:56.059Z,1.73
2024-04-25T11:02:02.751Z,1.52
2024-04-25T11:07:11.547Z,1.60
2024-04-25T11:12:16.180Z,1.52
2024-04-25T11:17:21.451Z,1.70
2024-04-25T11:22:36.130Z,1.58
2024-04-25T11:27:51.653Z,1.20
2024-04-25T11:32:56.338Z,1.35
2024-04-25T11:38:03.544Z,1.70
2024-04-25T11:43:08.616Z,1.30
2024-04-25T11:48:16.317Z,1.70
2024-04-25T11:53:23.615Z,1.63
2024-04-25T11:58:28.176Z,1.58
2024-04-25T12:03:32.694Z,1.65
2024-04-25T12:08:39.950Z,1.35
2024-04-25T12:13:46.873Z,1.30
2024-04-25T12:18:51.470Z,1.10
2024-04-25T12:23:58.690Z,1.40
2024-04-25T12:29:03.226Z,1.30
2024-04-25T12:34:10.492Z,1.13
2024-04-25T12:39:21.769Z,1.48
2024-04-25T12:44:30.763Z,1.02
2024-04-25T12:49:37.749Z,1.00
2024-04-25T12:54:44.993Z,1.17
2024-04-25T12:59:49.584Z,0.90
2024-04-25T13:04:54.745Z,1.00
2024-04-25T13:10:02.397Z,1.00
2024-04-25T13:15:07.298Z,0.80
2024-04-25T13:20:12.217Z,0.50
2024-04-25T13:25:19.387Z,0.90
2024-04-25T13:30:23.948Z,0.90
2024-04-25T14:56:41.186Z,0.88
2024-04-25T15:01:45.745Z,0.80
2024-04-25T15:06:52.890Z,0.75
2024-04-25T15:12:06.337Z,0.80
2024-04-25T15:17:11.516Z,0.93
2024-04-25T15:22:18.859Z,3.22
2024-04-25T15:27:23.657Z,1.30
2024-04-25T15:32:28.767Z,1.08
2024-04-25T15:37:36.580Z,1.73
2024-04-25T15:42:41.214Z,1.02
2024-04-25T15:47:45.841Z,1.00
2024-04-25T15:52:53.167Z,1.05
2024-04-25T15:57:58.643Z,1.10
2024-04-25T16:03:04.444Z,1.10
2024-04-25T16:08:12.412Z,1.30
2024-04-25T16:13:17.073Z,4.65
2024-04-25T16:18:21.811Z,1.08
2024-04-25T16:23:29.437Z,1.90
2024-04-25T16:28:33.984Z,1.20
2024-04-25T16:33:38.662Z,1.85
2024-04-25T16:38:46.105Z,1.10
2024-04-25T16:43:50.726Z,0.90
2024-04-25T16:48:55.262Z,1.02
2024-04-25T16:54:02.405Z,0.80
2024-04-25T16:59:06.991Z,0.80
2024-04-25T17:04:11.575Z,0.85
2024-04-25T17:09:19.680Z,0.90
2024-04-25T17:14:25.215Z,1.10
2024-04-25T17:19:29.837Z,1.33
2024-04-25T17:24:36.998Z,1.02
2024-04-25T17:29:42.588Z,0.95
2024-04-25T17:34:49.723Z,0.95
2024-04-25T17:39:57.606Z,0.75
2024-04-25T17:45:05.512Z,0.85
2024-04-25T17:50:11.733Z,0.90
2024-04-25T17:55:19.154Z,1.00
2024-04-25T18:00:23.707Z,0.98
2024-04-25T18:05:28.266Z,1.27
2024-04-25T18:10:35.449Z,1.10
2024-04-25T18:15:40.120Z,1.08
2024-04-25T18:20:44.718Z,0.93
2024-04-25T18:25:52.752Z,1.20
2024-04-25T18:30:57.766Z,1.15
2024-04-25T18:36:02.932Z,0.90
2024-04-25T18:41:10.179Z,1.02
2024-04-25T18:46:15.161Z,1.00
2024-04-25T18:51:20.211Z,0.88
2024-04-25T18:56:27.342Z,0.70
2024-04-25T19:01:32.091Z,0.73
2024-04-25T19:06:37.258Z,0.60
2024-04-25T19:11:46.466Z,0.90
2024-04-25T19:16:51.557Z,0.60
2024-04-25T19:21:56.815Z,0.80
2024-04-25T19:27:04.318Z,0.73
2024-04-25T19:32:09.184Z,0.80
2024-04-25T19:37:16.281Z,0.60
2024-04-25T19:42:23.402Z,0.80
2024-04-25T19:47:28.468Z,0.70
2024-04-25T19:52:33.649Z,0.90
2024-04-25T19:57:40.994Z,1.10
2024-04-25T20:02:45.694Z,1.70
2024-04-25T20:07:50.281Z,1.80
2024-04-25T20:12:57.449Z,0.90
2024-04-25T20:18:17.905Z,1.00
2024-04-25T20:23:22.637Z,1.60
2024-04-25T20:28:30.273Z,1.30
2024-04-25T20:33:35.031Z,1.00
2024-04-25T20:38:39.914Z,0.90
2024-04-25T20:43:47.135Z,1.05
2024-04-25T20:48:52.707Z,0.90
2024-04-25T20:53:57.830Z,1.00
2024-04-25T20:59:05.366Z,1.10
2024-04-25T21:04:10.343Z,1.10
2024-04-25T21:09:15.176Z,0.88
2024-04-25T21:14:22.561Z,1.27
2024-04-25T21:19:27.099Z,1.08
2024-04-25T21:24:31.774Z,1.42
2024-04-25T21:29:39.615Z,1.17
2024-04-25T21:34:44.681Z,1.25
2024-04-25T21:39:50.507Z,1.15
2024-04-25T21:44:57.951Z,1.30
2024-04-25T21:50:02.552Z,1.60
2024-04-25T21:55:07.724Z,1.52
2024-04-25T22:00:15.629Z,1.33
2024-04-25T22:05:20.619Z,1.50
2024-04-25T22:10:25.303Z,1.33
2024-04-25T22:15:32.770Z,1.52
2024-04-25T22:20:37.369Z,1.70
2024-04-25T22:25:41.999Z,1.58
2024-04-25T22:30:49.192Z,1.70
2024-04-25T22:35:53.788Z,1.40
2024-04-25T22:40:58.310Z,1.40
2024-04-25T22:46:05.536Z,1.60
2024-04-25T22:51:10.241Z,1.60
2024-04-25T22:56:14.774Z,1.70
2024-04-25T23:01:22.025Z,1.40
2024-04-25T23:06:27.749Z,1.70
2024-04-25T23:11:32.305Z,1.73
2024-04-25T23:16:39.624Z,1.77
2024-04-25T23:21:44.254Z,1.67
2024-04-25T23:26:48.948Z,1.80
2024-04-25T23:31:56.273Z,1.80
2024-04-25T23:37:01.003Z,1.87
2024-04-25T23:42:06.546Z,1.60
2024-04-25T23:47:14.559Z,1.90
2024-04-25T23:52:20.476Z,1.90
2024-04-25T23:57:24.982Z,1.80
